Time;durP1;ratioP1;P1;durP2;ratioP2;P2;SDS_P1;SDS_P2;PMS_P1;PMS_P2;Temp;Humidity;BMP_temperature;BMP_pressure;BME280_temperature;BME280_humidity;BME280_pressure;Samples;Min_cycle;Max_cycle;Signal;HPM_P1;HPM_P2
2022/09/28 00:01:20;;;;;;;11.82;2.53;;;18.20;99.90;;;;;;6222020;23;20095;-92
2022/09/28 00:03:49;;;;;;;12.50;2.63;;;18.20;99.90;;;;;;6222185;23;20090;-92
2022/09/28 00:06:20;;;;;;;5.95;2.53;;;18.20;99.90;;;;;;6223097;23;20023;-92
2022/09/28 00:08:48;;;;;;;5.43;2.08;;;18.10;99.90;;;;;;6223971;23;20035;-92
2022/09/28 00:11:17;;;;;;;9.43;2.30;;;18.10;99.90;;;;;;6221313;23;20008;-92
2022/09/28 00:13:47;;;;;;;5.43;2.28;;;18.00;99.90;;;;;;6221359;23;20004;-93
2022/09/28 00:16:18;;;;;;;4.25;1.88;;;18.00;99.90;;;;;;6221126;23;20410;-91
2022/09/28 00:18:45;;;;;;;11.63;2.78;;;18.10;99.90;;;;;;6221865;23;20004;-92
2022/09/28 00:21:16;;;;;;;6.13;1.92;;;18.00;99.90;;;;;;6221172;23;20028;-92
2022/09/28 00:26:46;;;;;;;5.05;2.03;;;18.00;99.90;;;;;;6246307;23;20344;-92
2022/09/28 00:29:36;;;;;;;5.45;2.10;;;18.00;99.90;;;;;;6220949;23;20393;-92
2022/09/28 00:32:05;;;;;;;7.63;2.00;;;18.00;99.90;;;;;;6221283;23;20015;-91
2022/09/28 00:34:40;;;;;;;10.60;2.50;;;18.00;99.90;;;;;;6221294;23;20000;-92
2022/09/28 00:37:10;;;;;;;6.22;1.95;;;18.00;99.90;;;;;;6221472;23;20073;-91
2022/09/28 00:39:40;;;;;;;7.28;1.85;;;18.10;99.90;;;;;;6221216;23;20004;-93
2022/09/28 00:42:25;;;;;;;10.50;2.38;;;18.10;99.90;;;;;;6221104;23;20087;-92
2022/09/28 00:44:57;;;;;;;7.13;1.88;;;18.10;99.90;;;;;;6221275;23;20016;-92
2022/09/28 00:47:39;;;;;;;10.57;2.25;;;18.10;99.90;;;;;;6220956;23;20046;-92
2022/09/28 00:50:34;;;;;;;18.50;2.42;;;18.20;99.90;;;;;;6221316;23;20426;-92
2022/09/28 00:53:25;;;;;;;6.78;1.98;;;18.20;99.90;;;;;;6222390;23;20091;-93
2022/09/28 00:55:56;;;;;;;5.90;2.03;;;18.30;99.90;;;;;;6220877;23;20057;-91
2022/09/28 00:58:28;;;;;;;9.88;2.33;;;18.30;99.90;;;;;;6221341;23;20063;-92
2022/09/28 01:00:56;;;;;;;3.95;1.83;;;18.30;99.90;;;;;;6221071;23;20468;-92
2022/09/28 01:03:25;;;;;;;8.63;1.88;;;18.30;99.90;;;;;;6220881;23;20004;-92
2022/09/28 01:05:54;;;;;;;5.25;2.05;;;18.30;99.90;;;;;;6220694;23;20434;-91
2022/09/28 01:08:23;;;;;;;4.38;1.85;;;18.30;99.90;;;;;;6221039;23;20032;-93
2022/09/28 01:10:50;;;;;;;9.05;2.00;;;18.30;99.90;;;;;;6221161;23;20042;-93
2022/09/28 01:13:23;;;;;;;4.15;1.83;;;18.30;99.90;;;;;;6221386;23;20028;-93
2022/09/28 01:16:18;;;;;;;9.32;2.42;;;18.30;99.90;;;;;;6220885;23;20087;-92
2022/09/28 01:19:17;;;;;;;5.22;1.92;;;18.40;99.90;;;;;;6221374;23;20016;-92
2022/09/28 01:22:16;;;;;;;5.25;2.13;;;18.40;99.90;;;;;;6222283;23;20015;-92
2022/09/28 01:24:53;;;;;;;4.75;2.20;;;18.50;99.90;;;;;;6201297;23;20019;-92
2022/09/28 01:27:43;;;;;;;6.07;2.10;;;18.50;99.90;;;;;;6221351;23;20036;-92
2022/09/28 01:30:15;;;;;;;7.82;2.38;;;18.60;99.90;;;;;;6220900;23;20016;-93
2022/09/28 01:33:19;;;;;;;3.55;2.38;;;18.70;99.90;;;;;;6221252;23;20460;-92
2022/09/28 01:36:16;;;;;;;4.60;2.45;;;18.70;99.90;;;;;;6217744;23;20066;-93
2022/09/28 01:38:48;;;;;;;13.50;4.05;;;18.80;99.90;;;;;;6077618;23;20010;-92
2022/09/28 01:41:16;;;;;;;12.88;4.20;;;18.80;99.90;;;;;;6101626;23;20014;-92
2022/09/28 01:44:07;;;;;;;11.07;4.05;;;18.90;99.90;;;;;;6101324;23;20190;-92
2022/09/28 01:46:48;;;;;;;8.38;3.88;;;18.90;99.90;;;;;;6078373;23;20028;-93
2022/09/28 01:49:37;;;;;;;6.50;2.75;;;18.90;99.90;;;;;;6101047;23;20010;-93
2022/09/28 01:52:17;;;;;;;6.45;2.50;;;18.90;99.90;;;;;;6101487;23;20010;-91
2022/09/28 01:55:02;;;;;;;4.60;1.73;;;18.90;99.90;;;;;;6101548;23;20013;-92
2022/09/28 01:57:41;;;;;;;5.45;2.20;;;18.90;99.90;;;;;;6101823;23;20399;-92
2022/09/28 02:00:29;;;;;;;6.57;2.10;;;18.90;99.90;;;;;;6101604;23;20448;-92
2022/09/28 02:03:18;;;;;;;6.93;2.00;;;18.90;99.90;;;;;;6101772;23;20020;-91
2022/09/28 02:05:59;;;;;;;7.82;2.20;;;18.90;99.90;;;;;;6101174;23;20044;-91
2022/09/28 02:08:39;;;;;;;9.93;2.20;;;19.00;99.90;;;;;;6101514;23;20125;-93
2022/09/28 02:11:14;;;;;;;4.13;2.00;;;19.10;99.90;;;;;;6077174;23;20021;-91
2022/09/28 02:14:00;;;;;;;6.88;2.28;;;19.10;99.90;;;;;;6101424;23;20053;-91
2022/09/28 02:16:53;;;;;;;6.95;2.30;;;19.10;99.90;;;;;;6235957;23;20323;-92
2022/09/28 02:19:27;;;;;;;5.25;2.70;;;19.10;99.90;;;;;;6222094;23;20004;-92
2022/09/28 02:21:59;;;;;;;6.22;3.25;;;19.20;99.90;;;;;;6221023;23;20479;-92
2022/09/28 02:24:41;;;;;;;10.57;2.80;;;19.20;99.90;;;;;;6221881;23;20035;-93
2022/09/28 02:27:44;;;;;;;6.45;2.60;;;19.20;99.90;;;;;;6222491;23;20012;-91
2022/09/28 02:30:12;;;;;;;5.72;2.45;;;19.20;99.90;;;;;;6080944;23;20018;-93
2022/09/28 02:32:43;;;;;;;8.15;3.05;;;19.10;99.90;;;;;;6102990;23;20010;-92
2022/09/28 02:35:16;;;;;;;5.82;2.42;;;19.10;99.90;;;;;;6078530;23;20014;-92
2022/09/28 02:37:44;;;;;;;;;;;19.00;99.90;;;;;;6102127;23;20005;-93
2022/09/28 02:40:14;;;;;;;5.55;2.20;;;18.90;99.90;;;;;;6125943;23;19916;-93
2022/09/28 02:42:53;;;;;;;5.60;2.22;;;18.80;99.90;;;;;;6103675;23;20006;-92
2022/09/28 02:45:26;;;;;;;8.70;2.90;;;18.70;99.90;;;;;;6102487;23;20018;-94
2022/09/28 02:48:16;;;;;;;11.00;3.17;;;18.70;99.90;;;;;;6102753;23;20010;-91
2022/09/28 02:51:02;;;;;;;4.13;2.55;;;18.60;99.90;;;;;;6102712;23;20013;-92
2022/09/28 02:54:02;;;;;;;5.72;2.55;;;18.50;99.90;;;;;;6102646;23;20014;-92
2022/09/28 02:57:02;;;;;;;5.63;2.70;;;18.40;99.90;;;;;;6102456;23;20010;-91
2022/09/28 02:59:40;;;;;;;7.15;2.65;;;18.30;99.90;;;;;;6102655;23;20009;-92
2022/09/28 03:02:22;;;;;;;4.07;2.50;;;18.20;99.90;;;;;;6102603;23;20014;-91
2022/09/28 03:05:18;;;;;;;8.45;3.00;;;18.10;99.90;;;;;;6102589;23;20014;-93
2022/09/28 03:07:59;;;;;;;9.30;3.38;;;18.10;99.90;;;;;;6186994;23;20042;-93
2022/09/28 03:10:53;;;;;;;11.93;3.35;;;18.00;99.90;;;;;;6223370;23;20042;-91
2022/09/28 03:13:20;;;;;;;5.90;3.17;;;17.90;99.90;;;;;;6225466;23;20016;-90
2022/09/28 03:15:47;;;;;;;8.55;3.03;;;17.80;99.90;;;;;;6236061;23;20050;-91
2022/09/28 03:18:15;;;;;;;7.75;4.25;;;17.90;99.90;;;;;;6242158;23;20016;-90
2022/09/28 03:20:42;;;;;;;5.30;3.25;;;17.90;99.90;;;;;;6222029;23;20008;-92
2022/09/28 03:23:09;;;;;;;7.63;4.20;;;18.00;99.90;;;;;;6222295;23;20004;-91
2022/09/28 03:25:35;;;;;;;11.65;3.90;;;18.20;99.90;;;;;;6222070;23;20020;-92
2022/09/28 03:28:02;;;;;;;12.60;4.00;;;18.30;99.90;;;;;;6222157;23;20001;-92
2022/09/28 03:30:32;;;;;;;8.63;4.00;;;18.40;99.90;;;;;;6222636;23;20070;-91
2022/09/28 03:33:01;;;;;;;10.13;4.65;;;18.50;99.90;;;;;;6222295;23;20008;-91
2022/09/28 03:35:30;;;;;;;15.85;5.10;;;18.70;99.90;;;;;;6222725;23;20015;-91
2022/09/28 03:37:57;;;;;;;13.32;5.07;;;18.70;99.90;;;;;;6223654;23;20000;-92
2022/09/28 03:40:32;;;;;;;10.85;5.00;;;18.80;99.90;;;;;;6222400;23;20012;-91
2022/09/28 03:43:00;;;;;;;17.90;5.97;;;18.90;99.90;;;;;;6222931;23;20062;-93
2022/09/28 03:45:27;;;;;;;16.35;6.07;;;18.90;99.90;;;;;;6223810;23;20412;-92
2022/09/28 03:47:54;;;;;;;17.73;6.60;;;19.00;99.90;;;;;;6224496;23;20000;-93
2022/09/28 03:50:20;;;;;;;16.00;5.38;;;19.00;99.90;;;;;;6222957;23;20462;-92
2022/09/28 03:52:48;;;;;;;16.45;6.57;;;19.00;99.90;;;;;;6225906;23;20030;-92
2022/09/28 03:55:15;;;;;;;15.75;6.70;;;19.00;99.90;;;;;;6223263;23;20015;-93
2022/09/28 03:57:42;;;;;;;22.33;7.28;;;19.00;99.90;;;;;;6234993;23;19999;-91
2022/09/28 04:00:10;;;;;;;19.25;6.55;;;19.00;99.90;;;;;;6249619;22;19992;-92
2022/09/28 04:02:45;;;;;;;18.75;6.80;;;18.90;99.90;;;;;;6275221;22;20003;-91
2022/09/28 04:05:11;;;;;;;18.70;6.88;;;18.90;99.90;;;;;;6248930;22;20008;-91
2022/09/28 04:07:38;;;;;;;17.35;6.82;;;18.80;99.90;;;;;;6248681;22;19992;-93
2022/09/28 04:10:08;;;;;;;22.15;7.50;;;18.90;99.90;;;;;;6248458;23;19996;-91
2022/09/28 04:12:41;;;;;;;21.00;7.53;;;18.80;99.90;;;;;;6247129;23;20068;-92
2022/09/28 04:15:08;;;;;;;22.15;7.47;;;18.80;99.90;;;;;;6222454;23;20058;-94
2022/09/28 04:17:44;;;;;;;22.55;7.68;;;18.80;99.90;;;;;;6222042;23;20031;-92
2022/09/28 04:20:35;;;;;;;20.35;9.13;;;18.80;99.90;;;;;;6225447;23;20012;-91
2022/09/28 04:23:06;;;;;;;22.40;8.50;;;18.70;99.90;;;;;;6222828;23;20042;-94
2022/09/28 04:25:35;;;;;;;19.92;7.97;;;18.70;99.90;;;;;;6222341;23;20051;-93
2022/09/28 04:30:48;;;;;;;20.67;9.68;;;18.60;99.90;;;;;;6253770;23;20047;-93
2022/09/28 04:33:15;;;;;;;21.30;8.95;;;18.50;99.90;;;;;;6232317;23;20015;-91
2022/09/28 04:35:47;;;;;;;22.95;9.45;;;18.50;99.90;;;;;;6204986;23;20051;-91
2022/09/28 04:38:25;;;;;;;29.23;10.57;;;18.40;99.90;;;;;;6177107;23;20004;-92
2022/09/28 04:40:58;;;;;;;18.38;8.48;;;18.40;99.90;;;;;;6203988;23;20012;-91
2022/09/28 04:43:27;;;;;;;17.42;7.18;;;18.40;99.90;;;;;;6176577;23;20009;-92
2022/09/28 04:46:01;;;;;;;16.33;6.72;;;18.40;99.90;;;;;;6171020;23;20017;-92
2022/09/28 04:48:36;;;;;;;19.60;5.93;;;18.30;99.90;;;;;;6167664;23;20005;-92
2022/09/28 04:51:32;;;;;;;14.98;5.85;;;18.20;99.90;;;;;;6177782;23;20390;-93
2022/09/28 04:53:59;;;;;;;16.55;5.28;;;18.20;99.90;;;;;;6187982;23;20004;-92
2022/09/28 04:56:25;;;;;;;11.43;5.70;;;18.10;99.90;;;;;;6169832;23;20012;-94
2022/09/28 04:58:55;;;;;;;11.98;4.80;;;18.00;99.90;;;;;;6169238;23;20009;-91
2022/09/28 05:01:23;;;;;;;15.43;5.50;;;18.00;99.90;;;;;;6168398;23;20039;-91
2022/09/28 05:03:59;;;;;;;18.35;5.22;;;18.00;99.90;;;;;;6193817;23;20040;-92
2022/09/28 05:06:37;;;;;;;17.52;5.18;;;18.00;99.90;;;;;;6219047;23;20099;-92
2022/09/28 05:09:08;;;;;;;11.15;4.32;;;18.10;99.90;;;;;;6223435;23;20067;-92
2022/09/28 05:11:35;;;;;;;8.10;3.92;;;18.10;99.90;;;;;;6197085;23;20315;-92
2022/09/28 05:14:04;;;;;;;12.95;4.28;;;18.10;99.90;;;;;;6221437;23;20000;-94
2022/09/28 05:16:32;;;;;;;10.85;4.90;;;18.20;99.90;;;;;;6220727;23;20004;-91
2022/09/28 05:19:33;;;;;;;12.95;4.65;;;18.30;99.90;;;;;;6181119;23;20004;-92
2022/09/28 05:22:06;;;;;;;17.73;4.70;;;18.40;99.90;;;;;;6222306;23;20099;-94
2022/09/28 05:25:05;;;;;;;7.35;3.38;;;18.60;99.90;;;;;;6225063;23;20012;-93
2022/09/28 05:28:55;;;;;;;7.85;3.75;;;18.80;99.90;;;;;;6242693;23;20032;-93
2022/09/28 05:31:21;;;;;;;14.75;4.45;;;19.10;99.90;;;;;;6162105;22;20024;-94
2022/09/28 05:34:01;;;;;;;13.65;3.42;;;19.50;99.90;;;;;;6203523;23;20004;-94
2022/09/28 05:36:31;;;;;;;9.75;3.35;;;20.00;99.90;;;;;;6199880;23;20008;-94
2022/09/28 05:38:58;;;;;;;10.45;3.83;;;20.70;99.90;;;;;;6199209;23;20434;-94
2022/09/28 05:41:25;;;;;;;9.00;4.70;;;21.50;99.90;;;;;;6199636;23;20054;-95
2022/09/28 05:43:53;;;;;;;20.23;6.10;;;22.50;99.90;;;;;;6201071;23;20026;-95
2022/09/28 05:46:24;;;;;;;11.85;7.20;;;23.30;99.90;;;;;;6199322;23;20008;-95
2022/09/28 05:48:53;;;;;;;13.65;6.90;;;24.20;99.90;;;;;;6197115;23;20038;-93
2022/09/28 05:51:47;;;;;;;10.70;6.90;;;25.00;99.90;;;;;;6203945;23;20007;-95
2022/09/28 05:54:44;;;;;;;9.77;7.78;;;25.80;99.90;;;;;;6205681;23;20107;-90
2022/09/28 05:57:12;;;;;;;18.20;9.13;;;26.30;99.90;;;;;;6110525;23;20017;-90
2022/09/28 05:59:39;;;;;;;15.70;9.77;;;26.70;99.90;;;;;;6107864;23;20097;-89
2022/09/28 06:02:06;;;;;;;13.90;11.13;;;26.90;99.90;;;;;;6106211;23;20479;-89
2022/09/28 06:04:33;;;;;;;13.48;12.15;;;27.10;99.90;;;;;;6133902;23;20015;-92
2022/09/28 06:07:01;;;;;;;13.05;11.77;;;27.10;99.90;;;;;;6135755;23;20538;-91
2022/09/28 06:09:31;;;;;;;12.98;11.75;;;27.30;99.90;;;;;;6138251;23;20011;-93
2022/09/28 06:15:47;;;;;;;12.77;11.88;;;27.70;99.90;;;;;;6199070;23;20068;-94
2022/09/28 06:41:54;;;;;;;12.77;11.70;;;28.70;99.90;;;;;;6222305;22;19950;-92
2022/09/28 06:44:21;;;;;;;13.30;11.93;;;28.80;99.90;;;;;;6221204;23;20011;-77
2022/09/28 06:47:17;;;;;;;13.68;12.43;;;29.00;99.90;;;;;;6217375;23;20070;-77
2022/09/28 06:50:11;;;;;;;13.93;12.60;;;28.80;99.90;;;;;;6218251;23;20084;-77
2022/09/28 06:53:05;;;;;;;13.55;12.55;;;29.00;99.90;;;;;;6217616;23;20438;-77
2022/09/28 06:55:47;;;;;;;13.07;12.25;;;29.20;99.90;;;;;;6217438;23;20008;-77
2022/09/28 06:58:18;;;;;;;14.60;12.95;;;29.10;99.90;;;;;;6190835;23;20019;-77
2022/09/28 07:00:46;;;;;;;13.60;12.20;;;29.20;99.90;;;;;;6193108;23;20445;-79
2022/09/28 07:03:17;;;;;;;13.05;11.68;;;29.30;99.90;;;;;;6193467;23;20008;-81
2022/09/28 07:06:22;;;;;;;13.32;12.10;;;29.40;99.90;;;;;;6195611;23;20123;-79
2022/09/28 07:09:12;;;;;;;13.70;12.43;;;29.30;99.90;;;;;;6170552;23;20062;-82
2022/09/28 07:11:58;;;;;;;13.73;12.38;;;28.70;99.90;;;;;;6219338;23;20020;-83
2022/09/28 07:14:34;;;;;;;14.02;12.57;;;28.40;99.90;;;;;;6192500;23;20013;-83
2022/09/28 07:17:02;;;;;;;13.00;11.98;;;28.30;99.90;;;;;;6192403;23;20485;-84
2022/09/28 07:19:51;;;;;;;14.40;12.88;;;28.30;99.90;;;;;;6171942;23;20009;-94
2022/09/28 07:22:23;;;;;;;15.00;13.70;;;28.20;99.90;;;;;;6220769;23;20004;-93
2022/09/28 07:25:00;;;;;;;16.00;14.52;;;28.20;99.90;;;;;;6196627;23;20074;-93
2022/09/28 07:28:05;;;;;;;15.60;14.40;;;28.10;99.90;;;;;;6131899;23;20071;-90
2022/09/28 07:31:02;;;;;;;16.50;15.18;;;28.10;99.90;;;;;;6112752;23;20021;-93
2022/09/28 07:33:52;;;;;;;16.60;15.15;;;28.10;99.90;;;;;;6153155;23;20012;-89
2022/09/28 07:36:34;;;;;;;16.85;15.10;;;28.10;99.90;;;;;;6218847;23;20036;-89
2022/09/28 07:39:02;;;;;;;15.85;14.65;;;27.90;99.90;;;;;;6193659;23;20339;-86
2022/09/28 07:41:32;;;;;;;16.42;15.00;;;27.90;99.90;;;;;;6187128;23;20013;-82
2022/09/28 07:44:06;;;;;;;17.05;15.50;;;28.00;99.90;;;;;;6139788;23;20092;-85
2022/09/28 07:46:39;;;;;;;16.23;15.23;;;27.90;99.90;;;;;;6137969;23;20071;-90
2022/09/28 07:49:15;;;;;;;16.58;15.23;;;27.90;99.90;;;;;;6138842;23;20009;-86
2022/09/28 07:52:02;;;;;;;16.88;15.38;;;28.00;99.90;;;;;;6166537;23;20036;-86
2022/09/28 07:54:30;;;;;;;19.02;16.00;;;28.10;99.90;;;;;;6153881;23;20028;-88
2022/09/28 07:57:15;;;;;;;18.70;15.60;;;28.00;99.90;;;;;;6166247;23;20008;-88
2022/09/28 07:59:53;;;;;;;15.95;14.73;;;28.20;99.90;;;;;;6139728;23;20013;-89
2022/09/28 08:02:48;;;;;;;18.23;15.65;;;28.30;99.90;;;;;;6168056;23;20016;-89
2022/09/28 08:05:20;;;;;;;16.65;15.35;;;28.40;99.90;;;;;;6137948;23;20067;-89
2022/09/28 08:07:47;;;;;;;16.88;15.57;;;28.30;99.90;;;;;;6137048;23;20085;-90
2022/09/28 08:10:16;;;;;;;18.00;15.68;;;28.20;99.90;;;;;;6137303;23;20008;-90
2022/09/28 08:13:02;;;;;;;18.10;16.15;;;28.00;99.90;;;;;;6166201;23;20112;-90
2022/09/28 08:15:59;;;;;;;17.05;15.45;;;28.00;99.90;;;;;;6141276;23;20437;-90
2022/09/28 08:18:39;;;;;;;18.05;16.15;;;27.90;99.90;;;;;;6140132;23;20370;-90
2022/09/28 08:23:54;;;;;;;15.75;14.50;;;27.60;99.90;;;;;;6161681;23;20100;-90
2022/09/28 08:26:20;;;;;;;16.27;14.68;;;27.50;99.90;;;;;;6137125;23;20041;-90
2022/09/28 08:28:47;;;;;;;15.85;14.63;;;27.50;99.90;;;;;;6137396;23;20005;-90
2022/09/28 08:31:43;;;;;;;16.98;14.50;;;27.40;99.90;;;;;;6143256;23;20331;-90
2022/09/28 08:34:30;;;;;;;16.48;14.88;;;27.50;99.90;;;;;;6121806;23;20013;-90
2022/09/28 08:37:28;;;;;;;15.55;14.35;;;27.80;99.90;;;;;;6039447;23;20027;-88
2022/09/28 08:40:19;;;;;;;14.70;13.45;;;27.80;99.90;;;;;;6060541;23;20019;-89
2022/09/28 08:43:21;;;;;;;14.60;13.40;;;27.60;99.90;;;;;;6035505;23;20023;-85
2022/09/28 08:46:12;;;;;;;15.48;14.10;;;27.30;99.90;;;;;;6058374;23;20054;-89
2022/09/28 08:49:16;;;;;;;15.40;14.10;;;27.30;99.90;;;;;;6035306;23;20008;-78
2022/09/28 08:52:23;;;;;;;15.73;14.30;;;27.10;99.90;;;;;;6068633;23;20053;-78
2022/09/28 08:55:15;;;;;;;14.93;13.50;;;27.10;99.90;;;;;;6066572;23;20027;-78
2022/09/28 08:58:01;;;;;;;15.93;14.32;;;27.10;99.90;;;;;;6066778;23;20045;-78
2022/09/28 09:00:40;;;;;;;16.00;14.30;;;27.10;99.90;;;;;;6042510;23;20107;-78
2022/09/28 09:03:12;;;;;;;16.33;14.75;;;27.20;99.90;;;;;;6042795;23;20033;-78
2022/09/28 09:05:46;;;;;;;15.95;14.55;;;27.40;99.90;;;;;;6042284;23;20457;-78
2022/09/28 09:08:38;;;;;;;16.42;14.82;;;27.60;99.90;;;;;;6067229;23;20023;-87
2022/09/28 09:11:08;;;;;;;16.45;14.95;;;27.60;99.90;;;;;;6021946;23;20046;-87
2022/09/28 09:13:56;;;;;;;16.45;14.73;;;27.60;99.90;;;;;;6065279;23;20368;-88
2022/09/28 09:16:44;;;;;;;15.45;14.25;;;27.40;99.90;;;;;;6126038;23;20356;-88
2022/09/28 09:19:37;;;;;;;16.85;14.98;;;27.50;99.90;;;;;;6122981;23;20072;-88
2022/09/28 09:22:28;;;;;;;16.02;14.57;;;27.60;99.90;;;;;;6101574;23;20022;-88
2022/09/28 09:25:16;;;;;;;15.77;14.27;;;27.70;99.90;;;;;;6101313;23;21960;-87
2022/09/28 09:28:17;;;;;;;16.65;14.27;;;27.80;99.90;;;;;;6129155;23;20016;-87
2022/09/28 09:31:15;;;;;;;15.23;14.25;;;27.90;99.90;;;;;;6161069;23;20131;-87
2022/09/28 09:34:18;;;;;;;16.30;14.70;;;28.10;99.90;;;;;;6140510;23;20334;-87
2022/09/28 09:37:03;;;;;;;16.33;14.77;;;28.10;99.90;;;;;;6162236;23;20013;-87
2022/09/28 09:40:16;;;;;;;15.30;14.05;;;28.00;99.90;;;;;;6187736;23;20019;-88
2022/09/28 09:43:24;;;;;;;15.93;14.65;;;28.00;99.90;;;;;;6180930;23;20068;-87
2022/09/28 09:46:21;;;;;;;16.23;14.77;;;28.10;99.90;;;;;;6162873;23;20017;-87
2022/09/28 09:49:18;;;;;;;16.77;15.32;;;28.30;99.90;;;;;;6154524;23;20546;-88
2022/09/28 09:52:13;;;;;;;16.20;15.00;;;28.30;99.90;;;;;;6160893;23;20434;-87
2022/09/28 09:54:54;;;;;;;16.45;15.18;;;28.10;99.90;;;;;;6160518;23;20435;-87
2022/09/28 09:57:47;;;;;;;16.48;15.07;;;28.10;99.90;;;;;;6186056;23;20036;-88
2022/09/28 10:00:32;;;;;;;16.25;14.75;;;28.20;99.90;;;;;;6207444;23;20023;-89
2022/09/28 10:03:43;;;;;;;16.40;14.95;;;28.20;99.90;;;;;;6164987;23;20001;-87
2022/09/28 10:06:27;;;;;;;16.00;14.45;;;28.20;99.90;;;;;;6186507;23;20013;-86
2022/09/28 10:09:05;;;;;;;16.52;14.60;;;28.30;99.90;;;;;;6187949;23;20056;-87
2022/09/28 10:11:44;;;;;;;16.58;15.13;;;28.00;99.90;;;;;;6165401;23;20013;-87
2022/09/28 10:14:16;;;;;;;16.42;15.00;;;27.70;99.90;;;;;;6164868;23;20308;-87
2022/09/28 10:16:54;;;;;;;16.30;14.85;;;27.70;99.90;;;;;;6165026;23;20067;-87
2022/09/28 10:19:42;;;;;;;17.10;15.60;;;27.70;99.90;;;;;;6208647;23;20020;-86
2022/09/28 10:22:42;;;;;;;16.50;15.10;;;27.80;99.90;;;;;;6186787;23;20087;-87
2022/09/28 10:25:14;;;;;;;16.52;15.18;;;27.90;99.90;;;;;;6162617;23;20039;-85
2022/09/28 10:27:51;;;;;;;16.63;15.25;;;28.10;99.90;;;;;;6160694;23;20063;-86
2022/09/28 10:30:25;;;;;;;16.02;14.68;;;28.10;99.90;;;;;;6187044;23;20366;-85
2022/09/28 10:32:58;;;;;;;15.52;14.40;;;28.00;99.90;;;;;;6160288;23;20016;-86
2022/09/28 10:35:38;;;;;;;15.30;14.25;;;28.00;99.90;;;;;;6160758;23;20036;-86
2022/09/28 10:38:18;;;;;;;16.48;14.80;;;27.90;99.90;;;;;;6160111;23;20032;-85
2022/09/28 10:41:08;;;;;;;15.70;14.43;;;28.00;99.90;;;;;;6184992;23;20012;-85
2022/09/28 10:44:04;;;;;;;15.95;14.43;;;27.90;99.90;;;;;;6136537;23;20013;-85
2022/09/28 10:46:59;;;;;;;17.10;14.35;;;27.80;99.90;;;;;;6177993;23;20024;-85
2022/09/28 10:49:27;;;;;;;15.18;14.10;;;27.80;99.90;;;;;;6135548;23;20394;-86
2022/09/28 10:51:57;;;;;;;16.23;14.75;;;27.70;99.90;;;;;;6160937;23;20096;-86
2022/09/28 10:54:29;;;;;;;16.17;14.80;;;27.70;99.90;;;;;;6137127;23;20016;-85
2022/09/28 10:56:59;;;;;;;16.83;15.35;;;27.80;99.90;;;;;;6161407;23;20005;-85
2022/09/28 10:59:39;;;;;;;16.52;15.32;;;27.80;99.90;;;;;;6138021;23;20044;-85
2022/09/28 11:02:38;;;;;;;17.48;16.02;;;27.70;99.90;;;;;;6149642;23;20076;-86
2022/09/28 11:05:26;;;;;;;16.98;15.70;;;27.40;99.90;;;;;;6166109;23;20013;-87
2022/09/28 11:08:01;;;;;;;17.40;15.93;;;27.20;99.90;;;;;;6189134;23;20013;-87
2022/09/28 11:10:36;;;;;;;16.63;15.40;;;27.20;99.90;;;;;;6141601;23;20339;-88
2022/09/28 11:13:11;;;;;;;16.65;15.35;;;27.20;99.90;;;;;;6163868;23;20335;-85
2022/09/28 11:15:42;;;;;;;16.77;15.63;;;27.20;99.90;;;;;;6139409;23;20015;-86
2022/09/28 11:18:24;;;;;;;16.85;15.57;;;27.20;99.90;;;;;;6139581;23;20016;-86
2022/09/28 11:20:50;;;;;;;17.60;16.50;;;27.50;99.90;;;;;;6162535;23;20427;-86
2022/09/28 11:23:26;;;;;;;16.83;15.63;;;27.40;99.90;;;;;;6161916;23;20001;-86
2022/09/28 11:26:05;;;;;;;17.48;16.20;;;27.20;99.90;;;;;;6137153;23;20514;-86
2022/09/28 11:28:36;;;;;;;17.13;15.88;;;27.20;99.90;;;;;;6161651;23;20009;-86
2022/09/28 11:31:29;;;;;;;16.70;15.32;;;27.20;99.90;;;;;;6164265;23;20013;-92
2022/09/28 12:16:00;;;;;;;16.92;15.63;;;27.30;99.90;;;;;;6217238;22;20065;-95
2022/09/28 12:21:26;;;;;;;16.40;15.23;;;27.30;99.90;;;;;;6258046;22;20020;-92
2022/09/28 12:36:31;;;;;;;16.10;14.85;;;27.40;99.90;;;;;;6248864;22;20050;-95
2022/09/28 12:39:12;;;;;;;16.02;14.93;;;27.20;99.90;;;;;;6198523;23;20035;-91
2022/09/28 12:42:19;;;;;;;15.70;14.70;;;27.10;99.90;;;;;;6203320;23;20004;-93
2022/09/28 12:50:28;;;;;;;15.75;14.70;;;27.50;99.90;;;;;;6243348;22;20031;-96
2022/09/28 12:56:05;;;;;;;16.23;14.82;;;27.60;99.90;;;;;;6189438;23;20021;-94
2022/09/28 12:58:44;;;;;;;16.30;15.00;;;27.60;99.90;;;;;;6190316;23;20339;-92
2022/09/28 13:01:29;;;;;;;16.00;14.48;;;27.60;99.90;;;;;;6162172;23;20016;-93
2022/09/28 13:04:16;;;;;;;16.27;15.10;;;27.60;99.90;;;;;;6188029;23;20346;-93
2022/09/28 13:07:07;;;;;;;15.63;14.50;;;27.40;99.90;;;;;;6187743;23;20017;-92
2022/09/28 13:13:38;;;;;;;16.55;15.38;;;27.50;99.90;;;;;;6105879;23;20069;-93
2022/09/28 13:16:30;;;;;;;17.08;15.43;;;27.20;99.90;;;;;;6103235;23;20041;-93
2022/09/28 13:19:35;;;;;;;16.52;15.27;;;27.20;99.90;;;;;;6170441;23;20028;-93
2022/09/28 13:23:15;;;;;;;15.98;14.98;;;27.40;99.90;;;;;;6052296;23;20006;-92
2022/09/28 13:25:52;;;;;;;15.75;14.55;;;27.40;99.90;;;;;;5927883;24;20017;-94
2022/09/28 13:28:21;;;;;;;16.02;15.02;;;27.30;99.90;;;;;;5856119;24;20009;-93
2022/09/28 13:30:53;;;;;;;15.88;14.55;;;27.30;99.90;;;;;;5856321;24;20120;-94
2022/09/28 13:34:03;;;;;;;16.17;15.10;;;27.30;99.90;;;;;;5858689;24;20014;-94
2022/09/28 13:36:41;;;;;;;16.27;15.07;;;27.30;99.90;;;;;;5867559;24;20105;-94
2022/09/28 13:40:00;;;;;;;16.08;14.95;;;27.30;99.90;;;;;;5879120;24;20089;-94
2022/09/28 13:42:49;;;;;;;15.68;14.65;;;27.10;99.90;;;;;;5859033;24;20069;-94
2022/09/28 13:45:25;;;;;;;15.50;14.60;;;27.10;99.90;;;;;;5859278;24;20077;-94
2022/09/28 13:48:25;;;;;;;15.55;14.27;;;27.20;99.90;;;;;;5891166;24;20029;-94
2022/09/28 13:51:09;;;;;;;15.38;14.32;;;27.20;99.90;;;;;;5857756;24;20414;-94
2022/09/28 13:53:58;;;;;;;16.25;14.93;;;27.00;99.90;;;;;;5858578;24;20017;-93
2022/09/28 13:56:42;;;;;;;15.77;14.60;;;26.90;99.90;;;;;;5936539;23;20058;-94
2022/09/28 15:11:20;;;;;;;14.50;13.20;;;26.10;99.90;;;;;;6243923;22;20032;-93
2022/09/28 15:19:54;;;;;;;13.40;12.32;;;25.30;99.90;;;;;;6266721;22;20020;-93
2022/09/28 15:23:16;;;;;;;13.55;12.45;;;24.90;99.90;;;;;;6136291;23;20006;-94
2022/09/28 15:26:06;;;;;;;13.63;12.15;;;24.70;99.90;;;;;;6103227;23;20108;-94
2022/09/28 15:28:49;;;;;;;11.73;10.77;;;24.60;99.90;;;;;;6153587;22;20025;-93
2022/09/28 15:31:37;;;;;;;12.18;11.07;;;24.50;99.90;;;;;;6172034;23;20431;-94
2022/09/28 15:34:51;;;;;;;11.43;10.27;;;24.50;99.90;;;;;;6183420;23;20005;-93
2022/09/28 15:40:43;;;;;;;10.38;9.45;;;24.10;99.90;;;;;;6223176;23;20024;-94
2022/09/28 15:44:02;;;;;;;9.20;8.38;;;24.10;99.90;;;;;;6141892;23;20009;-94
2022/09/28 15:46:29;;;;;;;11.35;8.75;;;24.00;99.90;;;;;;6088733;23;20019;-93
2022/09/28 16:46:17;;;;;;;13.35;5.55;;;23.10;99.90;;;;;;6239772;22;20068;-91
2022/09/28 16:48:51;;;;;;;12.43;5.47;;;23.10;99.90;;;;;;6220864;23;20036;-91
2022/09/28 16:51:21;;;;;;;12.52;5.32;;;23.10;99.90;;;;;;6221718;23;20008;-93
2022/09/28 16:56:35;;;;;;;15.30;5.00;;;22.90;99.90;;;;;;6245870;23;20034;-91
2022/09/28 16:59:03;;;;;;;11.23;5.30;;;22.90;99.90;;;;;;6220945;23;20032;-91
2022/09/28 17:01:30;;;;;;;14.90;5.28;;;22.80;99.90;;;;;;6220724;23;20015;-91
2022/09/28 17:03:56;;;;;;;9.25;4.80;;;22.80;99.90;;;;;;6220678;23;20397;-91
2022/09/28 17:06:24;;;;;;;10.73;4.60;;;22.80;99.90;;;;;;6220802;23;20020;-90
2022/09/28 17:08:53;;;;;;;8.65;4.47;;;22.80;99.90;;;;;;6220981;23;20004;-91
2022/09/28 17:11:20;;;;;;;8.85;5.10;;;22.70;99.90;;;;;;6220897;23;20008;-91
2022/09/28 17:13:47;;;;;;;10.93;5.22;;;22.70;99.90;;;;;;6220809;23;20015;-90
2022/09/28 17:16:21;;;;;;;14.15;4.47;;;22.60;99.90;;;;;;6220483;23;20109;-91
2022/09/28 17:18:48;;;;;;;12.70;4.65;;;22.60;99.90;;;;;;6222302;23;20038;-89
2022/09/28 17:21:19;;;;;;;10.10;5.18;;;22.50;99.90;;;;;;6220792;23;20090;-89
2022/09/28 17:23:48;;;;;;;10.98;4.85;;;22.50;99.90;;;;;;6220655;23;20004;-89
2022/09/28 17:26:33;;;;;;;11.95;4.15;;;22.50;99.90;;;;;;6220479;23;20020;-90
2022/09/28 17:29:00;;;;;;;10.25;4.25;;;22.40;99.90;;;;;;6220586;23;20014;-90
2022/09/28 17:31:29;;;;;;;9.70;4.80;;;22.40;99.90;;;;;;6220374;23;20004;-90
2022/09/28 17:33:55;;;;;;;9.90;4.40;;;22.30;99.90;;;;;;6220427;23;20008;-90
2022/09/28 17:36:23;;;;;;;12.15;4.35;;;22.30;99.90;;;;;;6220638;23;20012;-89
2022/09/28 17:38:50;;;;;;;15.20;4.63;;;22.30;99.90;;;;;;6220356;23;20031;-91
2022/09/28 17:41:19;;;;;;;10.77;4.28;;;22.20;99.90;;;;;;6220493;23;20405;-90
2022/09/28 17:43:46;;;;;;;9.85;4.40;;;22.20;99.90;;;;;;6220444;23;20426;-91
2022/09/28 17:46:25;;;;;;;19.38;4.72;;;22.10;99.90;;;;;;6220009;23;20083;-90